createdAt,value
2022-08-20T00:00:04.999Z,1008.10
2022-08-20T00:01:05.006Z,1008.10
2022-08-20T00:02:05.101Z,1008.08
2022-08-20T00:03:05.011Z,1008.08
2022-08-20T00:04:05.011Z,1008.09
2022-08-20T00:05:05.019Z,1008.06
2022-08-20T00:06:05.020Z,1008.04
2022-08-20T00:07:05.024Z,1008.04
2022-08-20T00:08:05.026Z,1008.03
2022-08-20T00:09:05.025Z,1008.01
2022-08-20T00:10:05.032Z,1008.01
2022-08-20T00:11:05.035Z,1007.97
2022-08-20T00:12:05.040Z,1008.00
2022-08-20T00:13:05.042Z,1008.04
2022-08-20T00:14:05.043Z,1008.03
2022-08-20T00:15:05.047Z,1008.02
2022-08-20T00:16:05.054Z,1008.07
2022-08-20T00:17:05.055Z,1008.10
2022-08-20T00:18:05.055Z,1008.05
2022-08-20T00:19:05.060Z,1008.09
2022-08-20T00:20:05.061Z,1008.11
2022-08-20T00:21:05.072Z,1008.12
2022-08-20T00:22:05.069Z,1008.14
2022-08-20T00:23:09.812Z,1008.13
2022-08-20T00:24:05.075Z,1008.11
2022-08-20T00:25:05.078Z,1008.15
2022-08-20T00:26:05.080Z,1008.13
2022-08-20T00:27:05.083Z,1008.14
2022-08-20T00:28:05.086Z,1008.15
2022-08-20T00:29:05.092Z,1008.19
2022-08-20T00:30:05.094Z,1008.19
2022-08-20T00:31:05.099Z,1008.16
2022-08-20T00:32:05.099Z,1008.15
2022-08-20T00:33:05.104Z,1008.14
2022-08-20T00:34:05.111Z,1008.15
2022-08-20T00:35:05.110Z,1008.17
2022-08-20T00:36:05.110Z,1008.11
2022-08-20T00:37:05.114Z,1008.12
2022-08-20T00:38:05.369Z,1008.11
2022-08-20T00:39:05.119Z,1008.06
2022-08-20T00:40:05.182Z,1008.10
2022-08-20T00:41:05.129Z,1008.10
2022-08-20T00:42:05.135Z,1008.09
2022-08-20T00:43:05.135Z,1008.14
2022-08-20T00:44:05.137Z,1008.14
2022-08-20T00:45:05.139Z,1008.11
2022-08-20T00:46:05.144Z,1008.11
2022-08-20T00:47:05.147Z,1008.12
2022-08-20T00:48:05.169Z,1008.11
2022-08-20T00:49:05.156Z,1008.14
2022-08-20T00:50:05.153Z,1008.13
2022-08-20T00:51:05.160Z,1008.13
2022-08-20T00:52:05.162Z,1008.18
2022-08-20T00:53:05.163Z,1008.12
2022-08-20T00:54:05.170Z,1008.14
2022-08-20T00:55:05.174Z,1008.13
2022-08-20T00:56:05.171Z,1008.11
2022-08-20T00:57:05.178Z,1008.11
2022-08-20T00:58:05.348Z,1008.12
2022-08-20T00:59:05.187Z,1008.12
2022-08-20T01:00:05.185Z,1008.13
2022-08-20T01:01:05.186Z,1008.15
2022-08-20T01:02:05.257Z,1008.15
2022-08-20T01:03:05.198Z,1008.15
2022-08-20T01:04:05.195Z,1008.13
2022-08-20T01:05:05.203Z,1008.14
2022-08-20T01:06:05.203Z,1008.12
2022-08-20T01:07:05.210Z,1008.15
2022-08-20T01:08:05.206Z,1008.20
2022-08-20T01:09:05.216Z,1008.16
2022-08-20T01:10:05.213Z,1008.17
2022-08-20T01:11:05.223Z,1008.15
2022-08-20T01:12:05.218Z,1008.16
2022-08-20T01:13:05.223Z,1008.16
2022-08-20T01:14:05.231Z,1008.16
2022-08-20T01:15:05.232Z,1008.18
2022-08-20T01:16:05.232Z,1008.21
2022-08-20T01:17:05.238Z,1008.16
2022-08-20T01:18:05.241Z,1008.23
2022-08-20T01:19:05.243Z,1008.23
2022-08-20T01:20:05.245Z,1008.18
2022-08-20T01:21:05.249Z,1008.19
2022-08-20T01:22:05.251Z,1008.20
2022-08-20T01:23:05.258Z,1008.19
2022-08-20T01:24:05.254Z,1008.22
2022-08-20T01:25:05.261Z,1008.23
2022-08-20T01:26:05.265Z,1008.21
2022-08-20T01:27:05.267Z,1008.21
2022-08-20T01:28:05.274Z,1008.19
2022-08-20T01:29:05.278Z,1008.20
2022-08-20T01:30:06.099Z,1008.21
2022-08-20T01:31:05.284Z,1008.21
2022-08-20T01:32:05.286Z,1008.18
2022-08-20T01:33:05.289Z,1008.20
2022-08-20T01:34:05.287Z,1008.23
2022-08-20T01:35:05.287Z,1008.24
2022-08-20T01:36:05.292Z,1008.26
2022-08-20T01:37:05.295Z,1008.23
2022-08-20T01:38:05.303Z,1008.25
2022-08-20T01:39:05.302Z,1008.22
2022-08-20T01:40:05.352Z,1008.19
2022-08-20T01:41:05.311Z,1008.24
2022-08-20T01:42:05.307Z,1008.25
2022-08-20T01:43:05.319Z,1008.26
2022-08-20T01:44:05.316Z,1008.28
2022-08-20T01:45:05.325Z,1008.27
2022-08-20T01:46:05.323Z,1008.30
2022-08-20T01:47:05.335Z,1008.30
2022-08-20T01:48:05.330Z,1008.27
2022-08-20T01:49:05.330Z,1008.27
2022-08-20T01:50:05.335Z,1008.26
2022-08-20T01:51:05.339Z,1008.27
2022-08-20T01:52:05.343Z,1008.26
2022-08-20T01:53:05.345Z,1008.26
2022-08-20T01:54:05.344Z,1008.24
2022-08-20T01:55:05.350Z,1008.21
2022-08-20T01:56:05.352Z,1008.26
2022-08-20T01:57:05.357Z,1008.24
2022-08-20T01:58:05.360Z,1008.24
2022-08-20T01:59:05.364Z,1008.24
2022-08-20T02:00:05.364Z,1008.23
2022-08-20T02:01:05.367Z,1008.25
2022-08-20T02:02:05.368Z,1008.24
2022-08-20T02:03:05.374Z,1008.24
2022-08-20T02:04:05.376Z,1008.27
2022-08-20T02:05:05.387Z,1008.23
2022-08-20T02:06:05.389Z,1008.26
2022-08-20T02:07:05.386Z,1008.25
2022-08-20T02:08:05.384Z,1008.26
2022-08-20T02:09:05.389Z,1008.28
2022-08-20T02:10:05.394Z,1008.29
2022-08-20T02:11:05.396Z,1008.30
2022-08-20T02:12:05.395Z,1008.25
2022-08-20T02:13:05.401Z,1008.25
2022-08-20T02:14:05.406Z,1008.26
2022-08-20T02:15:05.407Z,1008.26
2022-08-20T02:16:05.405Z,1008.25
2022-08-20T02:17:05.411Z,1008.31
2022-08-20T02:18:05.420Z,1008.31
2022-08-20T02:19:05.420Z,1008.30
2022-08-20T02:20:05.421Z,1008.32
2022-08-20T02:21:05.423Z,1008.38
2022-08-20T02:22:05.426Z,1008.35
2022-08-20T02:23:05.431Z,1008.39
2022-08-20T02:24:05.434Z,1008.41
2022-08-20T02:25:05.438Z,1008.42
2022-08-20T02:26:05.440Z,1008.45
2022-08-20T02:27:05.443Z,1008.45
2022-08-20T02:28:05.444Z,1008.45
2022-08-20T02:29:05.450Z,1008.44
2022-08-20T02:30:05.449Z,1008.46
2022-08-20T02:31:05.461Z,1008.52
2022-08-20T02:32:32.471Z,1008.50
2022-08-20T02:33:05.456Z,1008.52
2022-08-20T02:34:14.815Z,1008.49
2022-08-20T02:35:05.468Z,1008.49
2022-08-20T02:36:05.466Z,1008.49
2022-08-20T02:37:05.471Z,1008.51
2022-08-20T02:38:05.475Z,1008.56
2022-08-20T02:39:05.476Z,1008.51
2022-08-20T02:40:05.563Z,1008.54
2022-08-20T02:41:05.482Z,1008.57
2022-08-20T02:42:05.486Z,1008.57
2022-08-20T02:43:05.490Z,1008.56
2022-08-20T02:44:05.489Z,1008.55
2022-08-20T02:45:05.492Z,1008.53
2022-08-20T02:46:05.497Z,1008.54
2022-08-20T02:47:05.497Z,1008.52
2022-08-20T02:48:05.514Z,1008.54
2022-08-20T02:49:05.509Z,1008.54
2022-08-20T02:50:06.912Z,1008.55
2022-08-20T02:51:05.518Z,1008.53
2022-08-20T02:52:05.508Z,1008.52
2022-08-20T02:53:05.512Z,1008.49
2022-08-20T02:54:05.518Z,1008.51
2022-08-20T02:55:05.518Z,1008.52
2022-08-20T02:56:05.523Z,1008.46
2022-08-20T02:57:05.527Z,1008.48
2022-08-20T02:58:05.526Z,1008.45
2022-08-20T02:59:05.531Z,1008.42
2022-08-20T03:00:05.534Z,1008.40
2022-08-20T03:01:05.602Z,1008.43
2022-08-20T03:02:05.541Z,1008.43
2022-08-20T03:03:05.543Z,1008.44
2022-08-20T03:04:05.542Z,1008.43
2022-08-20T03:05:05.546Z,1008.44
2022-08-20T03:06:05.550Z,1008.42
2022-08-20T03:07:05.557Z,1008.43
2022-08-20T03:08:05.557Z,1008.43
2022-08-20T03:09:05.558Z,1008.41
2022-08-20T03:10:05.560Z,1008.41
2022-08-20T03:11:05.565Z,1008.40
2022-08-20T03:12:05.568Z,1008.38
2022-08-20T03:13:05.568Z,1008.40
2022-08-20T03:14:05.574Z,1008.38
2022-08-20T03:15:05.576Z,1008.40
2022-08-20T03:16:05.578Z,1008.39
2022-08-20T03:17:05.580Z,1008.40
2022-08-20T03:18:05.584Z,1008.39
2022-08-20T03:19:05.588Z,1008.39
2022-08-20T03:20:05.585Z,1008.37
2022-08-20T03:21:05.589Z,1008.37
2022-08-20T03:22:05.597Z,1008.38
2022-08-20T03:23:05.597Z,1008.35
2022-08-20T03:24:05.600Z,1008.34
2022-08-20T03:25:05.607Z,1008.29
2022-08-20T03:26:05.605Z,1008.28
2022-08-20T03:27:05.606Z,1008.32
2022-08-20T03:28:05.610Z,1008.25
2022-08-20T03:29:05.617Z,1008.24
2022-08-20T03:30:05.639Z,1008.27
2022-08-20T03:31:05.618Z,1008.25
2022-08-20T03:32:07.750Z,1008.25
2022-08-20T03:33:05.621Z,1008.25
2022-08-20T03:34:05.627Z,1008.25
2022-08-20T03:35:05.632Z,1008.26
2022-08-20T03:36:05.642Z,1008.27
2022-08-20T03:37:05.639Z,1008.28
2022-08-20T03:38:05.639Z,1008.22
2022-08-20T03:39:05.644Z,1008.24
2022-08-20T03:40:05.694Z,1008.24
2022-08-20T03:41:05.649Z,1008.24
2022-08-20T03:42:05.653Z,1008.22
2022-08-20T03:43:05.652Z,1008.22
2022-08-20T03:44:05.649Z,1008.15
2022-08-20T03:45:05.660Z,1008.18
2022-08-20T03:46:05.663Z,1008.14
2022-08-20T03:47:05.663Z,1008.18
2022-08-20T03:48:05.665Z,1008.20
2022-08-20T03:49:05.670Z,1008.26
2022-08-20T03:50:05.673Z,1008.30
2022-08-20T03:51:05.672Z,1008.29
2022-08-20T03:52:05.676Z,1008.33
2022-08-20T03:53:05.681Z,1008.35
2022-08-20T03:54:05.684Z,1008.33
2022-08-20T03:55:05.684Z,1008.32
2022-08-20T03:56:05.691Z,1008.33
2022-08-20T03:57:12.747Z,1008.32
2022-08-20T03:58:05.690Z,1008.28
2022-08-20T03:59:05.695Z,1008.28
2022-08-20T04:00:05.698Z,1008.30
2022-08-20T04:01:05.747Z,1008.30
2022-08-20T04:02:05.746Z,1008.32
2022-08-20T04:03:05.704Z,1008.31
2022-08-20T04:04:05.714Z,1008.31
2022-08-20T04:05:05.707Z,1008.33
2022-08-20T04:06:05.715Z,1008.31
2022-08-20T04:07:05.719Z,1008.32
2022-08-20T04:08:05.715Z,1008.30
2022-08-20T04:09:05.723Z,1008.35
2022-08-20T04:10:05.722Z,1008.40
2022-08-20T04:11:05.730Z,1008.40
2022-08-20T04:12:05.729Z,1008.43
2022-08-20T04:13:05.732Z,1008.48
2022-08-20T04:14:05.737Z,1008.53
2022-08-20T04:15:05.736Z,1008.50
2022-08-20T04:16:05.738Z,1008.54
2022-08-20T04:17:05.741Z,1008.51
2022-08-20T04:18:05.745Z,1008.52
2022-08-20T04:19:05.748Z,1008.51
2022-08-20T04:20:05.751Z,1008.54
2022-08-20T04:21:05.755Z,1008.53
2022-08-20T04:22:05.760Z,1008.52
2022-08-20T04:23:05.757Z,1008.49
2022-08-20T04:24:05.768Z,1008.50
2022-08-20T04:25:05.762Z,1008.46
2022-08-20T04:26:05.767Z,1008.46
2022-08-20T04:27:05.769Z,1008.42
2022-08-20T04:28:05.773Z,1008.41
2022-08-20T04:29:05.774Z,1008.40
2022-08-20T04:30:05.778Z,1008.38
2022-08-20T04:31:05.781Z,1008.35
2022-08-20T04:32:06.165Z,1008.35
2022-08-20T04:33:05.779Z,1008.34
2022-08-20T04:34:05.789Z,1008.35
2022-08-20T04:35:05.791Z,1008.34
2022-08-20T04:36:06.052Z,1008.34
2022-08-20T04:37:05.795Z,1008.37
2022-08-20T04:38:05.800Z,1008.38
2022-08-20T04:39:05.803Z,1008.36
2022-08-20T04:40:05.962Z,1008.32
2022-08-20T04:41:05.813Z,1008.29
2022-08-20T04:42:05.808Z,1008.29
2022-08-20T04:43:05.813Z,1008.32
2022-08-20T04:44:05.815Z,1008.32
2022-08-20T04:45:05.817Z,1008.30
2022-08-20T04:46:05.821Z,1008.26
2022-08-20T04:47:05.824Z,1008.29
2022-08-20T04:48:05.821Z,1008.27
2022-08-20T04:49:05.825Z,1008.30
2022-08-20T04:50:05.829Z,1008.28
2022-08-20T04:51:05.835Z,1008.35
2022-08-20T04:52:05.832Z,1008.36
2022-08-20T04:53:05.840Z,1008.37
2022-08-20T04:54:05.841Z,1008.42
2022-08-20T04:55:05.845Z,1008.44
2022-08-20T04:56:05.844Z,1008.48
2022-08-20T04:57:05.849Z,1008.50
2022-08-20T04:58:05.852Z,1008.50
2022-08-20T04:59:05.855Z,1008.50
2022-08-20T05:00:05.855Z,1008.53
2022-08-20T05:01:05.906Z,1008.57
2022-08-20T05:02:05.864Z,1008.58
2022-08-20T05:03:05.866Z,1008.60
2022-08-20T05:04:05.868Z,1008.60
2022-08-20T05:05:05.866Z,1008.63
2022-08-20T05:06:05.876Z,1008.59
2022-08-20T05:07:05.879Z,1008.61
2022-08-20T05:08:05.877Z,1008.67
2022-08-20T05:09:05.881Z,1008.65
2022-08-20T05:10:05.885Z,1008.69
2022-08-20T05:11:32.734Z,1008.68
2022-08-20T05:12:05.887Z,1008.73
2022-08-20T05:13:05.890Z,1008.69
2022-08-20T05:14:05.897Z,1008.68
2022-08-20T05:15:05.893Z,1008.72
2022-08-20T05:16:05.900Z,1008.73
2022-08-20T05:17:05.901Z,1008.74
2022-08-20T05:18:05.909Z,1008.74
2022-08-20T05:19:05.917Z,1008.73
2022-08-20T05:20:05.918Z,1008.75
2022-08-20T05:21:05.915Z,1008.75
2022-08-20T05:22:05.917Z,1008.71
2022-08-20T05:23:05.921Z,1008.69
2022-08-20T05:24:05.932Z,1008.70
2022-08-20T05:25:05.924Z,1008.69
2022-08-20T05:26:05.931Z,1008.77
2022-08-20T05:27:05.930Z,1008.74
2022-08-20T05:28:05.931Z,1008.70
2022-08-20T05:29:05.937Z,1008.74
2022-08-20T05:30:05.938Z,1008.78
2022-08-20T05:31:05.940Z,1008.79
2022-08-20T05:32:05.944Z,1008.83
2022-08-20T05:33:05.946Z,1008.86
2022-08-20T05:34:05.963Z,1008.87
2022-08-20T05:35:05.953Z,1008.86
2022-08-20T05:36:05.956Z,1008.91
2022-08-20T05:37:05.956Z,1008.91
2022-08-20T05:38:05.959Z,1008.92
2022-08-20T05:39:05.973Z,1008.97
2022-08-20T05:40:06.026Z,1008.94
2022-08-20T05:41:05.976Z,1008.95
2022-08-20T05:42:05.976Z,1008.95
2022-08-20T05:43:05.975Z,1008.98
2022-08-20T05:44:05.979Z,1008.99
2022-08-20T05:45:11.091Z,1008.95
2022-08-20T05:46:05.984Z,1008.90
2022-08-20T05:47:05.990Z,1008.89
2022-08-20T05:48:05.996Z,1008.88
2022-08-20T05:49:05.995Z,1008.89
2022-08-20T05:50:05.996Z,1008.90
2022-08-20T05:51:05.998Z,1008.94
2022-08-20T05:52:06.003Z,1008.90
2022-08-20T05:53:06.001Z,1008.94
2022-08-20T05:54:06.005Z,1008.96
2022-08-20T05:55:06.011Z,1008.97
2022-08-20T05:56:06.014Z,1008.96
2022-08-20T05:57:06.014Z,1008.98
2022-08-20T05:58:06.023Z,1008.97
2022-08-20T05:59:06.026Z,1008.93
2022-08-20T06:00:06.024Z,1008.96
2022-08-20T06:01:06.085Z,1009.00
2022-08-20T06:02:06.029Z,1008.96
2022-08-20T06:03:06.031Z,1008.95
2022-08-20T06:04:06.039Z,1008.94
2022-08-20T06:05:06.046Z,1008.93
2022-08-20T06:06:06.044Z,1008.95
2022-08-20T06:07:06.048Z,1008.94
2022-08-20T06:08:07.348Z,1008.93
2022-08-20T06:09:06.053Z,1008.97
2022-08-20T06:10:06.057Z,1008.96
2022-08-20T06:11:06.060Z,1008.97
2022-08-20T06:12:06.297Z,1008.96
2022-08-20T06:13:06.063Z,1008.97
2022-08-20T06:14:06.067Z,1009.00
2022-08-20T06:15:06.073Z,1008.96
2022-08-20T06:16:06.934Z,1008.98
2022-08-20T06:17:06.076Z,1008.96
2022-08-20T06:18:12.997Z,1009.01
2022-08-20T06:19:06.078Z,1009.02
2022-08-20T06:20:06.086Z,1009.01
2022-08-20T06:21:06.089Z,1009.05
2022-08-20T06:22:17.747Z,1009.02
2022-08-20T06:23:06.096Z,1009.02
2022-08-20T06:24:06.102Z,1009.00
2022-08-20T06:25:06.097Z,1009.01
2022-08-20T06:26:06.105Z,1009.01
2022-08-20T06:27:06.105Z,1009.04
2022-08-20T06:28:06.108Z,1009.06
2022-08-20T06:29:06.110Z,1009.09
2022-08-20T06:30:06.116Z,1009.11
2022-08-20T06:31:06.119Z,1009.07
2022-08-20T06:32:06.120Z,1009.07
2022-08-20T06:33:06.120Z,1009.08
2022-08-20T06:34:06.127Z,1009.08
2022-08-20T06:35:06.131Z,1009.14
2022-08-20T06:36:06.132Z,1009.10
2022-08-20T06:37:06.135Z,1009.13
2022-08-20T06:38:06.142Z,1009.12
2022-08-20T06:39:06.146Z,1009.12
2022-08-20T06:40:06.246Z,1009.11
2022-08-20T06:41:06.153Z,1009.14
2022-08-20T06:42:06.149Z,1009.16
2022-08-20T06:43:06.153Z,1009.15
2022-08-20T06:44:06.155Z,1009.15
2022-08-20T06:45:06.166Z,1009.17
2022-08-20T06:46:06.162Z,1009.16
2022-08-20T06:47:06.166Z,1009.13
2022-08-20T06:48:06.174Z,1009.18
2022-08-20T06:49:06.177Z,1009.24
2022-08-20T06:50:06.173Z,1009.19
2022-08-20T06:51:06.175Z,1009.19
2022-08-20T06:52:06.178Z,1009.21
2022-08-20T06:53:06.385Z,1009.17
2022-08-20T06:54:06.188Z,1009.22
2022-08-20T06:55:06.187Z,1009.19
2022-08-20T06:56:06.194Z,1009.22
2022-08-20T06:57:06.192Z,1009.21
2022-08-20T06:58:06.201Z,1009.22
2022-08-20T06:59:06.200Z,1009.23
2022-08-20T07:00:06.204Z,1009.17
2022-08-20T07:01:09.502Z,1009.20
2022-08-20T07:02:06.210Z,1009.21
2022-08-20T07:03:06.213Z,1009.22
2022-08-20T07:04:06.216Z,1009.22
2022-08-20T07:05:06.214Z,1009.20
2022-08-20T07:06:06.220Z,1009.26
2022-08-20T07:07:06.219Z,1009.26
2022-08-20T07:08:06.230Z,1009.29
2022-08-20T07:09:06.229Z,1009.26
2022-08-20T07:10:06.231Z,1009.29
2022-08-20T07:11:06.236Z,1009.30
2022-08-20T07:12:06.260Z,1009.32
2022-08-20T07:13:06.242Z,1009.28
2022-08-20T07:14:06.245Z,1009.34
2022-08-20T07:15:06.247Z,1009.30
2022-08-20T07:16:06.251Z,1009.32
2022-08-20T07:17:06.254Z,1009.31
2022-08-20T07:18:06.257Z,1009.35
2022-08-20T07:19:06.258Z,1009.33
2022-08-20T07:20:06.261Z,1009.36
2022-08-20T07:21:06.264Z,1009.39
2022-08-20T07:22:06.268Z,1009.38
2022-08-20T07:23:06.268Z,1009.40
2022-08-20T07:24:06.273Z,1009.41
2022-08-20T07:25:06.274Z,1009.45
2022-08-20T07:26:06.283Z,1009.42
2022-08-20T07:27:06.281Z,1009.46
2022-08-20T07:28:06.283Z,1009.43
2022-08-20T07:29:06.287Z,1009.49
2022-08-20T07:30:09.917Z,1009.53
2022-08-20T07:31:13.439Z,1009.53
2022-08-20T07:32:06.300Z,1009.52
2022-08-20T07:33:06.304Z,1009.56
2022-08-20T07:34:06.302Z,1009.54
2022-08-20T07:35:06.307Z,1009.54
2022-08-20T07:36:06.311Z,1009.56
2022-08-20T07:37:06.314Z,1009.57
2022-08-20T07:38:06.315Z,1009.59
2022-08-20T07:39:06.319Z,1009.58
2022-08-20T07:40:06.343Z,1009.61
2022-08-20T07:41:06.321Z,1009.64
2022-08-20T07:42:06.327Z,1009.64
2022-08-20T07:43:06.331Z,1009.58
2022-08-20T07:44:06.328Z,1009.59
2022-08-20T07:45:06.336Z,1009.61
2022-08-20T07:46:06.346Z,1009.63
2022-08-20T07:47:06.345Z,1009.61
2022-08-20T07:48:06.340Z,1009.63
2022-08-20T07:49:06.358Z,1009.60
2022-08-20T07:50:06.351Z,1009.61
2022-08-20T07:51:06.354Z,1009.62
2022-08-20T07:52:06.357Z,1009.61
2022-08-20T07:53:06.356Z,1009.63
2022-08-20T07:54:06.362Z,1009.61
2022-08-20T07:55:06.369Z,1009.63
2022-08-20T07:56:06.368Z,1009.62
2022-08-20T07:57:06.370Z,1009.62
2022-08-20T07:58:06.373Z,1009.62
2022-08-20T07:59:06.379Z,1009.64
2022-08-20T08:00:06.384Z,1009.65
2022-08-20T08:01:06.497Z,1009.61
2022-08-20T08:02:06.392Z,1009.62
2022-08-20T08:03:06.390Z,1009.68
2022-08-20T08:04:06.397Z,1009.68
2022-08-20T08:05:06.396Z,1009.65
2022-08-20T08:06:06.398Z,1009.67
2022-08-20T08:07:06.401Z,1009.68
2022-08-20T08:08:07.409Z,1009.71
2022-08-20T08:09:06.410Z,1009.76
2022-08-20T08:10:06.412Z,1009.77
2022-08-20T08:11:06.412Z,1009.76
2022-08-20T08:12:06.414Z,1009.79
2022-08-20T08:13:06.421Z,1009.74
2022-08-20T08:14:06.422Z,1009.75
2022-08-20T08:15:06.429Z,1009.73
2022-08-20T08:16:06.433Z,1009.76
2022-08-20T08:17:06.439Z,1009.81
2022-08-20T08:18:06.432Z,1009.80
2022-08-20T08:19:06.449Z,1009.81
2022-08-20T08:20:06.442Z,1009.80
2022-08-20T08:21:06.447Z,1009.80
2022-08-20T08:22:06.458Z,1009.79
2022-08-20T08:23:06.454Z,1009.82
2022-08-20T08:24:06.458Z,1009.81
2022-08-20T08:25:06.463Z,1009.83
2022-08-20T08:26:06.465Z,1009.82
2022-08-20T08:27:06.468Z,1009.82
2022-08-20T08:28:06.466Z,1009.85
2022-08-20T08:29:06.473Z,1009.86
2022-08-20T08:30:06.476Z,1009.84
2022-08-20T08:31:06.475Z,1009.88
2022-08-20T08:32:06.474Z,1009.89
2022-08-20T08:33:06.485Z,1009.85
2022-08-20T08:34:06.484Z,1009.90
2022-08-20T08:35:06.486Z,1009.88
2022-08-20T08:36:06.492Z,1009.85
2022-08-20T08:37:06.495Z,1009.88
2022-08-20T08:38:06.505Z,1009.86
2022-08-20T08:39:06.510Z,1009.87
2022-08-20T08:40:06.590Z,1009.88
2022-08-20T08:41:06.514Z,1009.92
2022-08-20T08:42:06.514Z,1009.89
2022-08-20T08:43:06.514Z,1009.92
2022-08-20T08:44:06.518Z,1009.93
2022-08-20T08:45:06.530Z,1009.93
2022-08-20T08:46:06.528Z,1009.99
2022-08-20T08:47:06.527Z,1009.96
2022-08-20T08:48:06.530Z,1009.93
2022-08-20T08:49:06.535Z,1009.94
2022-08-20T08:50:06.535Z,1009.96
2022-08-20T08:51:06.542Z,1009.94
2022-08-20T08:52:06.540Z,1009.97
2022-08-20T08:53:06.548Z,1009.97
2022-08-20T08:54:07.262Z,1009.97
2022-08-20T08:55:06.559Z,1009.97
2022-08-20T08:56:06.563Z,1010.00
2022-08-20T08:57:06.560Z,1009.99
2022-08-20T08:58:16.622Z,1010.00
2022-08-20T08:59:06.565Z,1010.00
2022-08-20T09:00:06.571Z,1010.01
2022-08-20T09:01:09.394Z,1010.07
2022-08-20T09:02:06.644Z,1010.05
2022-08-20T09:03:07.492Z,1010.04
2022-08-20T09:04:06.582Z,1010.07
2022-08-20T09:05:06.590Z,1010.10
2022-08-20T09:06:06.593Z,1010.08
2022-08-20T09:07:06.591Z,1010.09
2022-08-20T09:08:06.595Z,1010.10
2022-08-20T09:09:06.610Z,1010.10
2022-08-20T09:10:06.597Z,1010.15
2022-08-20T09:11:06.608Z,1010.11
2022-08-20T09:12:06.609Z,1010.13
2022-08-20T09:13:06.616Z,1010.16
2022-08-20T09:14:06.617Z,1010.19
2022-08-20T09:15:06.619Z,1010.16
2022-08-20T09:16:06.627Z,1010.17
2022-08-20T09:17:06.630Z,1010.16
2022-08-20T09:18:06.628Z,1010.17
2022-08-20T09:19:06.637Z,1010.22
2022-08-20T09:20:06.637Z,1010.24
2022-08-20T09:21:06.641Z,1010.26
2022-08-20T09:22:06.642Z,1010.21
2022-08-20T09:23:06.643Z,1010.25
2022-08-20T09:24:06.651Z,1010.23
2022-08-20T09:25:06.651Z,1010.16
2022-08-20T09:26:06.654Z,1010.20
2022-08-20T09:27:06.659Z,1010.19
2022-08-20T09:28:06.664Z,1010.24
2022-08-20T09:29:06.666Z,1010.18
2022-08-20T09:30:06.667Z,1010.17
2022-08-20T09:31:07.044Z,1010.18
2022-08-20T09:32:06.676Z,1010.19
2022-08-20T09:33:06.679Z,1010.18
2022-08-20T09:34:06.685Z,1010.19
2022-08-20T09:35:09.450Z,1010.20
2022-08-20T09:36:31.884Z,1010.21
2022-08-20T09:37:06.693Z,1010.20
2022-08-20T09:38:06.697Z,1010.24
2022-08-20T09:39:06.699Z,1010.21
2022-08-20T09:40:06.764Z,1010.19
2022-08-20T09:41:06.708Z,1010.21
2022-08-20T09:42:06.710Z,1010.21
2022-08-20T09:43:06.715Z,1010.19
2022-08-20T09:44:06.718Z,1010.22
2022-08-20T09:45:06.721Z,1010.20
2022-08-20T09:46:06.723Z,1010.19
2022-08-20T09:47:06.728Z,1010.25
2022-08-20T09:48:10.388Z,1010.24
2022-08-20T09:49:06.733Z,1010.24
2022-08-20T09:50:06.737Z,1010.22
2022-08-20T09:51:06.746Z,1010.24
2022-08-20T09:52:06.745Z,1010.25
2022-08-20T09:53:06.750Z,1010.24
2022-08-20T09:54:06.753Z,1010.25
2022-08-20T09:55:06.762Z,1010.25
2022-08-20T09:56:06.761Z,1010.27
2022-08-20T09:57:06.765Z,1010.24
2022-08-20T09:58:06.767Z,1010.26
2022-08-20T09:59:06.774Z,1010.23
2022-08-20T10:00:06.768Z,1010.21
2022-08-20T10:01:06.782Z,1010.21
2022-08-20T10:02:06.835Z,1010.23
2022-08-20T10:03:06.791Z,1010.21
2022-08-20T10:04:06.792Z,1010.20
2022-08-20T10:05:06.794Z,1010.25
2022-08-20T10:06:06.801Z,1010.21
2022-08-20T10:07:06.802Z,1010.21
2022-08-20T10:08:06.815Z,1010.24
2022-08-20T10:09:06.811Z,1010.20
2022-08-20T10:10:06.813Z,1010.21
2022-08-20T10:11:06.818Z,1010.18
2022-08-20T10:12:06.827Z,1010.22
2022-08-20T10:13:06.827Z,1010.22
2022-08-20T10:14:06.831Z,1010.26
2022-08-20T10:15:06.832Z,1010.24
2022-08-20T10:16:06.838Z,1010.29
2022-08-20T10:17:06.843Z,1010.27
2022-08-20T10:18:06.845Z,1010.29
2022-08-20T10:19:06.849Z,1010.29
2022-08-20T10:20:06.853Z,1010.26
2022-08-20T10:21:06.856Z,1010.27
2022-08-20T10:22:06.859Z,1010.25
2022-08-20T10:23:06.863Z,1010.26
2022-08-20T10:24:06.868Z,1010.24
2022-08-20T10:25:06.869Z,1010.21
2022-08-20T10:26:06.877Z,1010.27
2022-08-20T10:27:06.877Z,1010.29
2022-08-20T10:28:06.884Z,1010.29
2022-08-20T10:29:06.883Z,1010.24
2022-08-20T10:30:06.895Z,1010.28
2022-08-20T10:31:06.895Z,1010.24
2022-08-20T10:32:06.897Z,1010.31
2022-08-20T10:33:06.904Z,1010.28
2022-08-20T10:34:06.909Z,1010.31
2022-08-20T10:35:06.911Z,1010.29
2022-08-20T10:36:06.911Z,1010.31
2022-08-20T10:37:06.917Z,1010.27
2022-08-20T10:38:06.924Z,1010.28
2022-08-20T10:39:06.933Z,1010.26
2022-08-20T10:40:06.971Z,1010.25
2022-08-20T10:41:06.938Z,1010.23
2022-08-20T10:42:06.945Z,1010.29
2022-08-20T10:43:06.947Z,1010.27
2022-08-20T10:44:06.943Z,1010.32
2022-08-20T10:45:06.955Z,1010.34
2022-08-20T10:46:06.983Z,1010.37
2022-08-20T10:47:06.960Z,1010.34
2022-08-20T10:48:06.969Z,1010.38
2022-08-20T10:49:06.970Z,1010.41
2022-08-20T10:50:06.970Z,1010.37
2022-08-20T10:51:06.984Z,1010.37
2022-08-20T10:52:06.983Z,1010.37
2022-08-20T10:53:06.992Z,1010.36
2022-08-20T10:54:09.439Z,1010.32
2022-08-20T10:56:00.375Z,1010.37
2022-08-20T10:56:59.571Z,1010.36
2022-08-20T10:57:59.577Z,1010.35
2022-08-20T10:58:59.586Z,1010.38
2022-08-20T10:59:59.589Z,1010.43
2022-08-20T11:00:59.591Z,1010.43
2022-08-20T11:01:59.658Z,1010.43
2022-08-20T11:02:59.600Z,1010.46
2022-08-20T11:03:59.605Z,1010.48
2022-08-20T11:04:59.610Z,1010.46
2022-08-20T11:05:59.619Z,1010.44
2022-08-20T11:06:59.618Z,1010.44
2022-08-20T11:07:59.630Z,1010.40
2022-08-20T11:08:59.633Z,1010.41
2022-08-20T11:09:59.642Z,1010.43
2022-08-20T11:10:59.641Z,1010.42
2022-08-20T11:11:59.648Z,1010.41
2022-08-20T11:12:59.649Z,1010.43
2022-08-20T11:13:59.664Z,1010.46
2022-08-20T11:14:59.663Z,1010.44
2022-08-20T11:15:59.663Z,1010.44
2022-08-20T11:16:59.673Z,1010.44
2022-08-20T11:17:59.679Z,1010.48
2022-08-20T11:18:59.684Z,1010.48
2022-08-20T11:19:59.687Z,1010.46
2022-08-20T11:20:59.687Z,1010.46
2022-08-20T11:21:59.697Z,1010.47
2022-08-20T11:22:59.701Z,1010.48
2022-08-20T11:24:02.716Z,1010.48
2022-08-20T11:24:59.711Z,1010.48
2022-08-20T11:25:59.718Z,1010.51
2022-08-20T11:26:59.723Z,1010.48
2022-08-20T11:27:59.727Z,1010.51
2022-08-20T11:28:59.733Z,1010.46
2022-08-20T11:29:59.737Z,1010.44
2022-08-20T11:30:59.756Z,1010.49
2022-08-20T11:31:59.747Z,1010.49
2022-08-20T11:32:59.752Z,1010.48
2022-08-20T11:33:59.760Z,1010.47
2022-08-20T11:34:59.767Z,1010.52
2022-08-20T11:35:59.768Z,1010.48
2022-08-20T11:36:59.775Z,1010.48
2022-08-20T11:37:59.833Z,1010.49
2022-08-20T11:38:59.783Z,1010.49
2022-08-20T11:39:59.820Z,1010.49
2022-08-20T11:40:59.791Z,1010.52
2022-08-20T11:41:59.804Z,1010.49
2022-08-20T11:43:16.587Z,1010.44
2022-08-20T11:44:20.221Z,1010.43
2022-08-20T11:44:59.814Z,1010.46
2022-08-20T11:45:59.824Z,1010.44
2022-08-20T11:46:59.832Z,1010.42
2022-08-20T11:47:59.828Z,1010.49
2022-08-20T11:48:59.835Z,1010.45
2022-08-20T11:49:59.841Z,1010.45
2022-08-20T11:50:59.843Z,1010.49
2022-08-20T11:51:59.855Z,1010.48
2022-08-20T11:53:01.589Z,1010.46
2022-08-20T11:53:59.859Z,1010.48
2022-08-20T11:54:59.863Z,1010.49
2022-08-20T11:55:59.876Z,1010.49
2022-08-20T11:56:59.874Z,1010.52
2022-08-20T11:58:01.002Z,1010.50
2022-08-20T11:58:59.884Z,1010.51
2022-08-20T11:59:59.890Z,1010.52
2022-08-20T12:00:59.904Z,1010.53
2022-08-20T12:02:03.327Z,1010.51
2022-08-20T12:03:00.257Z,1010.52
2022-08-20T12:03:59.914Z,1010.54
2022-08-20T12:04:59.916Z,1010.53
2022-08-20T12:05:59.924Z,1010.57